sensor_id;sensor_type;location;lat;lon;timestamp;pressure;altitude;pressure_sealevel;temperature;humidity
79316;BME280;68779;50.036;19.964;2024-03-25T00:06:49;100299.66;;;9.98;47.21
79316;BME280;68779;50.036;19.964;2024-03-25T00:37:10;100290.64;;;9.98;46.35
79316;BME280;68779;50.036;19.964;2024-03-25T01:07:23;100272.35;;;10.35;46.11
79316;BME280;68779;50.036;19.964;2024-03-25T01:37:37;100274.89;;;10.54;47.01
79316;BME280;68779;50.036;19.964;2024-03-25T02:38:21;100264.76;;;10.21;48.64
79316;BME280;68779;50.036;19.964;2024-03-25T03:08:37;100257.30;;;10.40;48.96
79316;BME280;68779;50.036;19.964;2024-03-25T03:38:51;100292.02;;;9.66;51.64
79316;BME280;68779;50.036;19.964;2024-03-25T04:09:06;100290.59;;;9.62;50.87
79316;BME280;68779;50.036;19.964;2024-03-25T04:39:22;100293.03;;;9.38;51.05
79316;BME280;68779;50.036;19.964;2024-03-25T05:09:37;100293.58;;;9.69;50.18
79316;BME280;68779;50.036;19.964;2024-03-25T05:39:51;100304.01;;;10.87;46.92
79316;BME280;68779;50.036;19.964;2024-03-25T06:10:06;100320.80;;;11.68;45.51
79316;BME280;68779;50.036;19.964;2024-03-25T06:40:21;100343.40;;;11.60;47.88
79316;BME280;68779;50.036;19.964;2024-03-25T07:10:43;100351.32;;;12.53;47.16
79316;BME280;68779;50.036;19.964;2024-03-25T07:41:06;100375.55;;;12.48;48.04
79316;BME280;68779;50.036;19.964;2024-03-25T08:11:20;100404.53;;;12.66;50.52
79316;BME280;68779;50.036;19.964;2024-03-25T08:41:41;100408.45;;;13.44;48.74
79316;BME280;68779;50.036;19.964;2024-03-25T09:12:00;100413.03;;;13.67;47.88
79316;BME280;68779;50.036;19.964;2024-03-25T09:42:26;100438.66;;;13.58;47.13
79316;BME280;68779;50.036;19.964;2024-03-25T10:12:37;100456.55;;;13.85;48.03
79316;BME280;68779;50.036;19.964;2024-03-25T10:43:02;100439.59;;;16.31;40.69
79316;BME280;68779;50.036;19.964;2024-03-25T11:13:27;100418.82;;;24.35;29.32
79316;BME280;68779;50.036;19.964;2024-03-25T11:43:48;100492.62;;;13.16;47.97
79316;BME280;68779;50.036;19.964;2024-03-25T12:14:03;100479.68;;;20.54;35.55
79316;BME280;68779;50.036;19.964;2024-03-25T12:44:17;100470.27;;;19.72;36.73
79316;BME280;68779;50.036;19.964;2024-03-25T13:14:35;100479.97;;;22.09;31.39
79316;BME280;68779;50.036;19.964;2024-03-25T13:44:49;100505.04;;;20.32;32.91
79316;BME280;68779;50.036;19.964;2024-03-25T14:15:11;100543.84;;;17.46;42.09
79316;BME280;68779;50.036;19.964;2024-03-25T14:45:27;100560.23;;;15.50;44.41
79316;BME280;68779;50.036;19.964;2024-03-25T15:15:44;100550.66;;;15.23;45.69
79316;BME280;68779;50.036;19.964;2024-03-25T15:46:01;100574.17;;;14.79;45.42
79316;BME280;68779;50.036;19.964;2024-03-25T16:16:18;100581.18;;;14.26;48.47
79316;BME280;68779;50.036;19.964;2024-03-25T17:17:01;100656.19;;;12.68;52.18
79316;BME280;68779;50.036;19.964;2024-03-25T17:47:21;100705.65;;;12.98;51.67
79316;BME280;68779;50.036;19.964;2024-03-25T18:33:40;100744.52;;;12.92;50.48
79316;BME280;68779;50.036;19.964;2024-03-25T19:04:06;100759.31;;;12.38;50.68
79316;BME280;68779;50.036;19.964;2024-03-25T19:34:21;100794.77;;;12.03;51.32
79316;BME280;68779;50.036;19.964;2024-03-25T20:04:39;100781.66;;;11.71;51.59
79316;BME280;68779;50.036;19.964;2024-03-25T20:34:54;100799.80;;;11.53;50.58
79316;BME280;68779;50.036;19.964;2024-03-25T21:05:09;100832.52;;;11.07;51.65
79316;BME280;68779;50.036;19.964;2024-03-25T21:35:25;100841.17;;;10.83;52.06
79316;BME280;68779;50.036;19.964;2024-03-25T22:36:13;100872.56;;;10.49;52.60
79316;BME280;68779;50.036;19.964;2024-03-25T23:06:27;100883.98;;;10.43;51.87
79316;BME280;68779;50.036;19.964;2024-03-25T23:36:41;100876.44;;;9.78;53.67
